createdAt,value
2019-04-25T00:12:33.471Z,12.01
2019-04-25T00:27:44.357Z,11.74
2019-04-25T00:42:52.228Z,11.62
2019-04-25T00:58:01.378Z,11.25
2019-04-25T01:13:11.339Z,11.04
2019-04-25T01:28:19.172Z,10.57
2019-04-25T01:43:29.124Z,10.47
2019-04-25T01:58:36.808Z,10.40
2019-04-25T02:13:44.111Z,10.50
2019-04-25T02:28:50.995Z,10.37
2019-04-25T02:44:01.387Z,10.36
2019-04-25T02:59:09.118Z,10.17
2019-04-25T03:14:17.462Z,10.05
2019-04-25T03:29:26.128Z,9.96
2019-04-25T03:44:33.975Z,9.83
2019-04-25T03:59:40.864Z,9.67
2019-04-25T04:14:47.787Z,9.75
2019-04-25T04:29:54.822Z,9.80
2019-04-25T04:45:03.550Z,10.18
2019-04-25T05:00:11.129Z,10.18
2019-04-25T05:15:19.435Z,12.69
2019-04-25T05:30:37.970Z,15.33
2019-04-25T05:45:44.601Z,17.38
2019-04-25T06:00:52.382Z,18.29
2019-04-25T06:16:01.012Z,18.56
2019-04-25T06:31:10.366Z,19.06
2019-04-25T06:46:36.505Z,19.61
2019-04-25T07:01:44.048Z,20.19
2019-04-25T07:16:51.092Z,20.87
2019-04-25T07:32:07.893Z,21.52
2019-04-25T07:47:19.886Z,21.92
2019-04-25T08:02:28.108Z,22.36
2019-04-25T08:17:46.985Z,22.68
2019-04-25T08:32:54.482Z,23.13
2019-04-25T08:48:03.714Z,23.58
2019-04-25T09:03:17.645Z,23.90
2019-04-25T09:18:25.910Z,24.32
2019-04-25T09:33:46.725Z,24.67
2019-04-25T09:48:54.303Z,24.71
2019-04-25T10:04:02.219Z,24.53
2019-04-25T10:19:09.243Z,24.80
2019-04-25T10:34:16.345Z,25.21
2019-04-25T10:49:23.658Z,25.92
2019-04-25T11:04:33.086Z,26.61
2019-04-25T11:19:40.107Z,26.86
2019-04-25T11:34:48.878Z,26.18
2019-04-25T11:49:56.936Z,26.10
2019-04-25T12:05:05.121Z,26.81
2019-04-25T12:20:14.131Z,27.12
2019-04-25T12:35:21.130Z,27.35
2019-04-25T12:50:28.677Z,27.47
2019-04-25T13:05:35.829Z,27.44
2019-04-25T13:20:43.887Z,27.43
2019-04-25T13:35:57.627Z,27.52
2019-04-25T13:51:05.529Z,27.55
2019-04-25T14:06:13.693Z,27.44
2019-04-25T14:21:23.797Z,27.24
2019-04-25T14:36:30.756Z,26.91
2019-04-25T14:51:38.551Z,26.80
2019-04-25T15:06:45.678Z,26.64
2019-04-25T15:21:52.742Z,26.32
2019-04-25T15:37:06.763Z,26.06
2019-04-25T15:52:15.214Z,25.90
2019-04-25T16:07:22.358Z,25.46
2019-04-25T16:22:30.222Z,25.23
2019-04-25T16:37:37.958Z,24.78
2019-04-25T16:52:45.461Z,24.28
2019-04-25T17:07:52.021Z,23.73
2019-04-25T17:22:59.492Z,23.19
2019-04-25T17:38:19.393Z,22.59
2019-04-25T17:53:26.500Z,21.68
2019-04-25T18:08:33.405Z,20.55
2019-04-25T18:23:53.433Z,19.00
2019-04-25T18:39:14.787Z,17.61
2019-04-25T18:54:23.708Z,16.36
2019-04-25T19:09:30.693Z,15.52
2019-04-25T19:24:37.904Z,14.81
2019-04-25T19:39:47.284Z,14.10
2019-04-25T19:54:56.664Z,13.06
2019-04-25T20:10:05.926Z,12.77
2019-04-25T20:25:13.275Z,11.95
2019-04-25T20:40:20.081Z,11.53
2019-04-25T20:55:26.949Z,11.10
2019-04-25T21:10:35.505Z,10.78
2019-04-25T21:25:43.382Z,10.53
2019-04-25T21:40:57.909Z,9.99
2019-04-25T21:56:05.472Z,9.68
2019-04-25T22:11:13.354Z,9.44
2019-04-25T22:26:20.775Z,9.52
2019-04-25T22:41:29.937Z,9.07
2019-04-25T22:56:36.794Z,8.69
2019-04-25T23:11:44.438Z,8.24
2019-04-25T23:26:59.381Z,8.17
2019-04-25T23:42:06.138Z,8.21
2019-04-25T23:57:15.419Z,8.03
